sensor_id;sensor_type;location;lat;lon;timestamp;P1;durP1;ratioP1;P2;durP2;ratioP2
19049;SDS011;9657;45.940;12.840;2023-05-28T00:01:34;5.88;;;5.28;;
19049;SDS011;9657;45.940;12.840;2023-05-28T00:04:03;6.80;;;6.18;;
19049;SDS011;9657;45.940;12.840;2023-05-28T00:06:30;6.25;;;5.65;;
19049;SDS011;9657;45.940;12.840;2023-05-28T00:08:57;5.78;;;5.18;;
19049;SDS011;9657;45.940;12.840;2023-05-28T00:11:24;7.18;;;5.97;;
19049;SDS011;9657;45.940;12.840;2023-05-28T00:13:51;6.85;;;6.03;;
19049;SDS011;9657;45.940;12.840;2023-05-28T00:16:18;6.50;;;5.90;;
19049;SDS011;9657;45.940;12.840;2023-05-28T00:18:45;6.65;;;5.90;;
19049;SDS011;9657;45.940;12.840;2023-05-28T00:21:14;6.28;;;5.68;;
19049;SDS011;9657;45.940;12.840;2023-05-28T00:23:41;6.85;;;5.90;;
19049;SDS011;9657;45.940;12.840;2023-05-28T00:26:08;6.75;;;5.60;;
19049;SDS011;9657;45.940;12.840;2023-05-28T00:28:35;6.40;;;5.68;;
19049;SDS011;9657;45.940;12.840;2023-05-28T00:31:02;6.38;;;5.78;;
19049;SDS011;9657;45.940;12.840;2023-05-28T00:33:29;6.18;;;5.57;;
19049;SDS011;9657;45.940;12.840;2023-05-28T00:35:56;7.00;;;6.28;;
19049;SDS011;9657;45.940;12.840;2023-05-28T00:38:24;7.65;;;6.20;;
19049;SDS011;9657;45.940;12.840;2023-05-28T00:40:51;6.40;;;5.80;;
19049;SDS011;9657;45.940;12.840;2023-05-28T00:43:19;5.75;;;5.22;;
19049;SDS011;9657;45.940;12.840;2023-05-28T00:45:46;6.43;;;5.80;;
19049;SDS011;9657;45.940;12.840;2023-05-28T00:48:14;6.63;;;5.97;;
19049;SDS011;9657;45.940;12.840;2023-05-28T00:50:41;5.97;;;5.38;;
19049;SDS011;9657;45.940;12.840;2023-05-28T00:53:09;8.10;;;6.35;;
19049;SDS011;9657;45.940;12.840;2023-05-28T00:55:39;6.35;;;5.72;;
19049;SDS011;9657;45.940;12.840;2023-05-28T00:58:06;6.63;;;6.03;;
19049;SDS011;9657;45.940;12.840;2023-05-28T01:03:08;6.32;;;5.72;;
19049;SDS011;9657;45.940;12.840;2023-05-28T01:05:35;6.38;;;5.85;;
19049;SDS011;9657;45.940;12.840;2023-05-28T01:08:02;5.93;;;5.35;;
19049;SDS011;9657;45.940;12.840;2023-05-28T01:10:31;6.53;;;5.65;;
19049;SDS011;9657;45.940;12.840;2023-05-28T01:13:02;7.55;;;6.28;;
19049;SDS011;9657;45.940;12.840;2023-05-28T01:15:33;6.18;;;5.57;;
19049;SDS011;9657;45.940;12.840;2023-05-28T01:18:02;7.85;;;6.13;;
19049;SDS011;9657;45.940;12.840;2023-05-28T01:20:31;6.50;;;5.90;;
19049;SDS011;9657;45.940;12.840;2023-05-28T01:22:59;6.57;;;5.90;;
19049;SDS011;9657;45.940;12.840;2023-05-28T01:25:30;7.45;;;6.47;;
19049;SDS011;9657;45.940;12.840;2023-05-28T01:27:58;6.72;;;5.60;;
19049;SDS011;9657;45.940;12.840;2023-05-28T01:30:26;6.78;;;6.07;;
19049;SDS011;9657;45.940;12.840;2023-05-28T01:32:53;8.07;;;5.70;;
19049;SDS011;9657;45.940;12.840;2023-05-28T01:35:22;6.80;;;6.15;;
19049;SDS011;9657;45.940;12.840;2023-05-28T01:37:50;8.75;;;6.10;;
19049;SDS011;9657;45.940;12.840;2023-05-28T01:40:22;6.47;;;5.65;;
19049;SDS011;9657;45.940;12.840;2023-05-28T01:42:51;9.13;;;6.15;;
19049;SDS011;9657;45.940;12.840;2023-05-28T01:45:20;8.27;;;6.47;;
19049;SDS011;9657;45.940;12.840;2023-05-28T01:47:48;6.75;;;5.50;;
19049;SDS011;9657;45.940;12.840;2023-05-28T01:50:16;6.82;;;6.03;;
19049;SDS011;9657;45.940;12.840;2023-05-28T01:52:44;7.93;;;6.05;;
19049;SDS011;9657;45.940;12.840;2023-05-28T01:55:11;6.47;;;5.90;;
19049;SDS011;9657;45.940;12.840;2023-05-28T01:57:38;6.72;;;6.13;;
19049;SDS011;9657;45.940;12.840;2023-05-28T02:00:08;6.82;;;6.13;;
19049;SDS011;9657;45.940;12.840;2023-05-28T02:02:36;6.38;;;5.68;;
19049;SDS011;9657;45.940;12.840;2023-05-28T02:05:03;6.28;;;5.38;;
19049;SDS011;9657;45.940;12.840;2023-05-28T02:07:32;7.45;;;5.95;;
19049;SDS011;9657;45.940;12.840;2023-05-28T02:10:00;6.80;;;6.10;;
19049;SDS011;9657;45.940;12.840;2023-05-28T02:12:27;7.00;;;5.78;;
19049;SDS011;9657;45.940;12.840;2023-05-28T02:14:54;7.32;;;6.22;;
19049;SDS011;9657;45.940;12.840;2023-05-28T02:17:23;6.50;;;5.90;;
19049;SDS011;9657;45.940;12.840;2023-05-28T02:19:51;6.93;;;6.05;;
19049;SDS011;9657;45.940;12.840;2023-05-28T02:22:18;7.22;;;5.45;;
19049;SDS011;9657;45.940;12.840;2023-05-28T02:24:45;6.72;;;6.00;;
19049;SDS011;9657;45.940;12.840;2023-05-28T02:27:12;6.15;;;5.55;;
19049;SDS011;9657;45.940;12.840;2023-05-28T02:29:40;6.40;;;5.78;;
19049;SDS011;9657;45.940;12.840;2023-05-28T02:32:08;6.78;;;6.18;;
19049;SDS011;9657;45.940;12.840;2023-05-28T02:34:36;6.72;;;5.82;;
19049;SDS011;9657;45.940;12.840;2023-05-28T02:37:04;6.30;;;5.70;;
19049;SDS011;9657;45.940;12.840;2023-05-28T02:39:31;7.40;;;6.20;;
19049;SDS011;9657;45.940;12.840;2023-05-28T02:41:58;6.50;;;5.90;;
19049;SDS011;9657;45.940;12.840;2023-05-28T02:44:26;6.38;;;5.78;;
19049;SDS011;9657;45.940;12.840;2023-05-28T02:46:53;6.40;;;5.80;;
19049;SDS011;9657;45.940;12.840;2023-05-28T02:49:20;6.50;;;5.90;;
19049;SDS011;9657;45.940;12.840;2023-05-28T02:51:48;6.53;;;5.80;;
19049;SDS011;9657;45.940;12.840;2023-05-28T02:54:15;7.22;;;6.03;;
19049;SDS011;9657;45.940;12.840;2023-05-28T02:56:42;8.35;;;6.40;;
19049;SDS011;9657;45.940;12.840;2023-05-28T02:59:09;8.43;;;6.05;;
19049;SDS011;9657;45.940;12.840;2023-05-28T03:01:36;6.35;;;5.70;;
19049;SDS011;9657;45.940;12.840;2023-05-28T03:04:03;6.80;;;5.97;;
19049;SDS011;9657;45.940;12.840;2023-05-28T03:06:30;5.95;;;5.38;;
19049;SDS011;9657;45.940;12.840;2023-05-28T03:08:59;6.97;;;6.28;;
19049;SDS011;9657;45.940;12.840;2023-05-28T03:11:27;6.35;;;5.45;;
19049;SDS011;9657;45.940;12.840;2023-05-28T03:13:54;7.07;;;6.20;;
19049;SDS011;9657;45.940;12.840;2023-05-28T03:16:21;7.28;;;6.28;;
19049;SDS011;9657;45.940;12.840;2023-05-28T03:18:50;7.38;;;6.53;;
19049;SDS011;9657;45.940;12.840;2023-05-28T03:21:17;6.05;;;5.47;;
19049;SDS011;9657;45.940;12.840;2023-05-28T03:23:45;6.65;;;5.97;;
19049;SDS011;9657;45.940;12.840;2023-05-28T03:26:13;6.93;;;5.85;;
19049;SDS011;9657;45.940;12.840;2023-05-28T03:28:40;7.97;;;5.65;;
19049;SDS011;9657;45.940;12.840;2023-05-28T03:31:07;7.13;;;6.40;;
19049;SDS011;9657;45.940;12.840;2023-05-28T03:33:34;6.47;;;5.88;;
19049;SDS011;9657;45.940;12.840;2023-05-28T03:36:01;6.75;;;6.05;;
19049;SDS011;9657;45.940;12.840;2023-05-28T03:38:28;6.50;;;5.82;;
19049;SDS011;9657;45.940;12.840;2023-05-28T03:40:55;6.25;;;5.68;;
19049;SDS011;9657;45.940;12.840;2023-05-28T03:43:24;6.22;;;5.63;;
19049;SDS011;9657;45.940;12.840;2023-05-28T03:45:51;6.88;;;5.75;;
19049;SDS011;9657;45.940;12.840;2023-05-28T03:48:18;6.78;;;6.13;;
19049;SDS011;9657;45.940;12.840;2023-05-28T03:50:45;6.50;;;5.90;;
19049;SDS011;9657;45.940;12.840;2023-05-28T03:53:12;6.43;;;5.82;;
19049;SDS011;9657;45.940;12.840;2023-05-28T03:55:39;7.50;;;5.90;;
19049;SDS011;9657;45.940;12.840;2023-05-28T03:58:06;6.97;;;6.28;;
19049;SDS011;9657;45.940;12.840;2023-05-28T04:00:35;6.68;;;6.07;;
19049;SDS011;9657;45.940;12.840;2023-05-28T04:03:03;6.63;;;6.00;;
19049;SDS011;9657;45.940;12.840;2023-05-28T04:05:30;6.43;;;5.72;;
19049;SDS011;9657;45.940;12.840;2023-05-28T04:07:58;6.43;;;5.82;;
19049;SDS011;9657;45.940;12.840;2023-05-28T04:10:26;6.60;;;6.00;;
19049;SDS011;9657;45.940;12.840;2023-05-28T04:12:53;6.53;;;5.93;;
19049;SDS011;9657;45.940;12.840;2023-05-28T04:15:21;6.55;;;5.93;;
19049;SDS011;9657;45.940;12.840;2023-05-28T04:17:49;6.50;;;5.88;;
19049;SDS011;9657;45.940;12.840;2023-05-28T04:20:16;6.10;;;5.38;;
19049;SDS011;9657;45.940;12.840;2023-05-28T04:22:43;7.20;;;6.57;;
19049;SDS011;9657;45.940;12.840;2023-05-28T04:25:12;7.35;;;6.32;;
19049;SDS011;9657;45.940;12.840;2023-05-28T04:27:39;6.90;;;6.20;;
19049;SDS011;9657;45.940;12.840;2023-05-28T04:30:07;7.13;;;6.38;;
19049;SDS011;9657;45.940;12.840;2023-05-28T04:32:34;6.88;;;5.95;;
19049;SDS011;9657;45.940;12.840;2023-05-28T04:35:05;6.35;;;5.72;;
19049;SDS011;9657;45.940;12.840;2023-05-28T04:37:34;6.97;;;5.90;;
19049;SDS011;9657;45.940;12.840;2023-05-28T04:40:02;6.68;;;5.78;;
19049;SDS011;9657;45.940;12.840;2023-05-28T04:42:29;7.10;;;6.40;;
19049;SDS011;9657;45.940;12.840;2023-05-28T04:44:56;7.18;;;6.47;;
19049;SDS011;9657;45.940;12.840;2023-05-28T04:47:25;7.32;;;6.03;;
19049;SDS011;9657;45.940;12.840;2023-05-28T04:49:52;6.88;;;6.20;;
19049;SDS011;9657;45.940;12.840;2023-05-28T04:52:24;6.57;;;5.90;;
19049;SDS011;9657;45.940;12.840;2023-05-28T04:54:51;6.80;;;5.85;;
19049;SDS011;9657;45.940;12.840;2023-05-28T04:57:19;7.28;;;6.50;;
19049;SDS011;9657;45.940;12.840;2023-05-28T04:59:46;7.72;;;5.88;;
19049;SDS011;9657;45.940;12.840;2023-05-28T05:02:13;7.18;;;6.05;;
19049;SDS011;9657;45.940;12.840;2023-05-28T05:04:42;8.45;;;6.65;;
19049;SDS011;9657;45.940;12.840;2023-05-28T05:07:09;6.63;;;5.85;;
19049;SDS011;9657;45.940;12.840;2023-05-28T05:09:37;6.03;;;5.25;;
19049;SDS011;9657;45.940;12.840;2023-05-28T05:12:04;6.85;;;6.13;;
19049;SDS011;9657;45.940;12.840;2023-05-28T05:14:32;6.65;;;6.00;;
19049;SDS011;9657;45.940;12.840;2023-05-28T05:16:59;6.75;;;6.07;;
19049;SDS011;9657;45.940;12.840;2023-05-28T05:19:27;6.35;;;5.47;;
19049;SDS011;9657;45.940;12.840;2023-05-28T05:21:54;5.85;;;5.25;;
19049;SDS011;9657;45.940;12.840;2023-05-28T05:24:21;7.30;;;6.15;;
19049;SDS011;9657;45.940;12.840;2023-05-28T05:26:50;6.32;;;5.72;;
19049;SDS011;9657;45.940;12.840;2023-05-28T05:29:17;6.10;;;5.50;;
19049;SDS011;9657;45.940;12.840;2023-05-28T05:31:44;6.70;;;6.05;;
19049;SDS011;9657;45.940;12.840;2023-05-28T05:34:11;7.45;;;6.18;;
19049;SDS011;9657;45.940;12.840;2023-05-28T05:36:38;6.10;;;5.57;;
19049;SDS011;9657;45.940;12.840;2023-05-28T05:39:05;6.65;;;5.93;;
19049;SDS011;9657;45.940;12.840;2023-05-28T05:41:33;6.80;;;5.80;;
19049;SDS011;9657;45.940;12.840;2023-05-28T05:44:02;7.03;;;6.13;;
19049;SDS011;9657;45.940;12.840;2023-05-28T05:46:29;6.68;;;5.68;;
19049;SDS011;9657;45.940;12.840;2023-05-28T05:48:56;7.80;;;6.10;;
19049;SDS011;9657;45.940;12.840;2023-05-28T05:51:23;6.13;;;5.55;;
19049;SDS011;9657;45.940;12.840;2023-05-28T05:53:50;6.43;;;5.82;;
19049;SDS011;9657;45.940;12.840;2023-05-28T05:56:17;8.07;;;6.05;;
19049;SDS011;9657;45.940;12.840;2023-05-28T05:58:44;7.63;;;5.78;;
19049;SDS011;9657;45.940;12.840;2023-05-28T06:01:12;8.68;;;6.28;;
19049;SDS011;9657;45.940;12.840;2023-05-28T06:03:42;6.32;;;5.72;;
19049;SDS011;9657;45.940;12.840;2023-05-28T06:06:09;6.10;;;5.28;;
19049;SDS011;9657;45.940;12.840;2023-05-28T06:08:37;6.70;;;5.95;;
19049;SDS011;9657;45.940;12.840;2023-05-28T06:11:04;6.75;;;5.70;;
19049;SDS011;9657;45.940;12.840;2023-05-28T06:13:31;8.38;;;5.78;;
19049;SDS011;9657;45.940;12.840;2023-05-28T06:15:59;6.68;;;5.95;;
19049;SDS011;9657;45.940;12.840;2023-05-28T06:18:27;7.80;;;5.80;;
19049;SDS011;9657;45.940;12.840;2023-05-28T06:20:56;6.95;;;6.20;;
19049;SDS011;9657;45.940;12.840;2023-05-28T06:23:23;6.75;;;5.72;;
19049;SDS011;9657;45.940;12.840;2023-05-28T06:25:50;8.00;;;6.22;;
19049;SDS011;9657;45.940;12.840;2023-05-28T06:28:17;7.15;;;5.93;;
19049;SDS011;9657;45.940;12.840;2023-05-28T06:30:44;7.68;;;6.00;;
19049;SDS011;9657;45.940;12.840;2023-05-28T06:33:11;8.73;;;5.75;;
19049;SDS011;9657;45.940;12.840;2023-05-28T06:35:40;8.35;;;5.70;;
19049;SDS011;9657;45.940;12.840;2023-05-28T06:38:07;7.70;;;5.63;;
19049;SDS011;9657;45.940;12.840;2023-05-28T06:40:34;10.95;;;6.13;;
19049;SDS011;9657;45.940;12.840;2023-05-28T06:43:01;12.48;;;6.18;;
19049;SDS011;9657;45.940;12.840;2023-05-28T06:45:28;9.45;;;5.90;;
19049;SDS011;9657;45.940;12.840;2023-05-28T06:47:58;12.38;;;6.35;;
19049;SDS011;9657;45.940;12.840;2023-05-28T06:50:25;9.93;;;6.35;;
19049;SDS011;9657;45.940;12.840;2023-05-28T06:52:53;12.82;;;6.63;;
19049;SDS011;9657;45.940;12.840;2023-05-28T06:55:21;11.65;;;6.35;;
19049;SDS011;9657;45.940;12.840;2023-05-28T06:57:48;11.27;;;6.28;;
19049;SDS011;9657;45.940;12.840;2023-05-28T07:00:15;11.02;;;6.13;;
19049;SDS011;9657;45.940;12.840;2023-05-28T07:02:43;10.15;;;5.85;;
19049;SDS011;9657;45.940;12.840;2023-05-28T07:05:11;9.07;;;6.07;;
19049;SDS011;9657;45.940;12.840;2023-05-28T07:07:38;9.75;;;6.47;;
19049;SDS011;9657;45.940;12.840;2023-05-28T07:10:07;9.80;;;6.22;;
19049;SDS011;9657;45.940;12.840;2023-05-28T07:12:35;13.90;;;5.90;;
19049;SDS011;9657;45.940;12.840;2023-05-28T07:15:02;10.70;;;6.80;;
19049;SDS011;9657;45.940;12.840;2023-05-28T07:17:31;11.57;;;6.38;;
19049;SDS011;9657;45.940;12.840;2023-05-28T07:19:58;12.45;;;6.63;;
19049;SDS011;9657;45.940;12.840;2023-05-28T07:22:25;10.63;;;6.60;;
19049;SDS011;9657;45.940;12.840;2023-05-28T07:24:52;9.98;;;6.43;;
19049;SDS011;9657;45.940;12.840;2023-05-28T07:27:21;9.35;;;5.72;;
19049;SDS011;9657;45.940;12.840;2023-05-28T07:29:48;10.95;;;5.70;;
19049;SDS011;9657;45.940;12.840;2023-05-28T07:32:15;9.48;;;5.90;;
19049;SDS011;9657;45.940;12.840;2023-05-28T07:34:42;9.73;;;5.70;;
19049;SDS011;9657;45.940;12.840;2023-05-28T07:37:10;9.05;;;5.82;;
19049;SDS011;9657;45.940;12.840;2023-05-28T07:39:37;10.07;;;6.80;;
19049;SDS011;9657;45.940;12.840;2023-05-28T07:42:04;10.30;;;6.05;;
19049;SDS011;9657;45.940;12.840;2023-05-28T07:44:33;7.85;;;5.50;;
19049;SDS011;9657;45.940;12.840;2023-05-28T07:47:00;9.60;;;5.85;;
19049;SDS011;9657;45.940;12.840;2023-05-28T07:49:27;12.55;;;5.90;;
19049;SDS011;9657;45.940;12.840;2023-05-28T07:51:55;8.82;;;5.50;;
19049;SDS011;9657;45.940;12.840;2023-05-28T07:54:22;7.93;;;5.80;;
19049;SDS011;9657;45.940;12.840;2023-05-28T07:56:49;8.75;;;5.85;;
19049;SDS011;9657;45.940;12.840;2023-05-28T07:59:16;7.40;;;5.50;;
19049;SDS011;9657;45.940;12.840;2023-05-28T08:01:47;8.27;;;5.72;;
19049;SDS011;9657;45.940;12.840;2023-05-28T08:04:15;10.32;;;5.78;;
19049;SDS011;9657;45.940;12.840;2023-05-28T08:06:42;8.13;;;5.82;;
19049;SDS011;9657;45.940;12.840;2023-05-28T08:09:09;11.60;;;6.10;;
19049;SDS011;9657;45.940;12.840;2023-05-28T08:11:36;9.95;;;5.72;;
19049;SDS011;9657;45.940;12.840;2023-05-28T08:14:03;9.00;;;5.95;;
19049;SDS011;9657;45.940;12.840;2023-05-28T08:16:30;7.35;;;5.38;;
19049;SDS011;9657;45.940;12.840;2023-05-28T08:18:58;5.97;;;5.38;;
19049;SDS011;9657;45.940;12.840;2023-05-28T08:21:25;9.02;;;5.78;;
19049;SDS011;9657;45.940;12.840;2023-05-28T08:23:54;7.90;;;5.80;;
19049;SDS011;9657;45.940;12.840;2023-05-28T08:26:21;9.48;;;6.57;;
19049;SDS011;9657;45.940;12.840;2023-05-28T08:28:48;9.02;;;5.35;;
19049;SDS011;9657;45.940;12.840;2023-05-28T08:31:15;7.65;;;5.82;;
19049;SDS011;9657;45.940;12.840;2023-05-28T08:33:42;8.88;;;6.13;;
19049;SDS011;9657;45.940;12.840;2023-05-28T08:36:11;8.18;;;5.38;;
19049;SDS011;9657;45.940;12.840;2023-05-28T08:38:38;6.45;;;5.45;;
19049;SDS011;9657;45.940;12.840;2023-05-28T08:41:05;7.65;;;5.38;;
19049;SDS011;9657;45.940;12.840;2023-05-28T08:43:33;5.72;;;5.13;;
19049;SDS011;9657;45.940;12.840;2023-05-28T08:46:00;8.45;;;5.53;;
19049;SDS011;9657;45.940;12.840;2023-05-28T08:48:27;6.88;;;4.97;;
19049;SDS011;9657;45.940;12.840;2023-05-28T08:50:59;6.57;;;5.13;;
19049;SDS011;9657;45.940;12.840;2023-05-28T08:53:31;8.40;;;5.50;;
19049;SDS011;9657;45.940;12.840;2023-05-28T08:56:04;5.80;;;5.22;;
19049;SDS011;9657;45.940;12.840;2023-05-28T08:58:33;6.40;;;5.47;;
19049;SDS011;9657;45.940;12.840;2023-05-28T09:01:03;6.75;;;5.53;;
19049;SDS011;9657;45.940;12.840;2023-05-28T09:03:31;9.18;;;5.70;;
19049;SDS011;9657;45.940;12.840;2023-05-28T09:05:58;7.35;;;5.40;;
19049;SDS011;9657;45.940;12.840;2023-05-28T09:08:25;6.57;;;5.25;;
19049;SDS011;9657;45.940;12.840;2023-05-28T09:10:56;5.80;;;5.07;;
19049;SDS011;9657;45.940;12.840;2023-05-28T09:13:23;10.10;;;5.90;;
19049;SDS011;9657;45.940;12.840;2023-05-28T09:15:52;6.55;;;5.13;;
19049;SDS011;9657;45.940;12.840;2023-05-28T09:18:19;7.28;;;5.47;;
19049;SDS011;9657;45.940;12.840;2023-05-28T09:20:47;6.50;;;4.75;;
19049;SDS011;9657;45.940;12.840;2023-05-28T09:23:15;6.30;;;5.22;;
19049;SDS011;9657;45.940;12.840;2023-05-28T09:25:43;7.25;;;4.72;;
19049;SDS011;9657;45.940;12.840;2023-05-28T09:28:12;5.68;;;4.97;;
19049;SDS011;9657;45.940;12.840;2023-05-28T09:30:39;5.68;;;4.97;;
19049;SDS011;9657;45.940;12.840;2023-05-28T09:33:07;6.10;;;5.03;;
19049;SDS011;9657;45.940;12.840;2023-05-28T09:35:35;5.95;;;4.75;;
19049;SDS011;9657;45.940;12.840;2023-05-28T09:38:03;6.65;;;4.80;;
19049;SDS011;9657;45.940;12.840;2023-05-28T09:40:31;5.40;;;4.18;;
19049;SDS011;9657;45.940;12.840;2023-05-28T09:43:03;6.20;;;5.10;;
19049;SDS011;9657;45.940;12.840;2023-05-28T09:45:32;8.57;;;4.90;;
19049;SDS011;9657;45.940;12.840;2023-05-28T09:48:00;6.38;;;5.10;;
19049;SDS011;9657;45.940;12.840;2023-05-28T09:50:27;4.65;;;4.15;;
19049;SDS011;9657;45.940;12.840;2023-05-28T09:52:55;5.60;;;4.70;;
19049;SDS011;9657;45.940;12.840;2023-05-28T09:55:23;5.82;;;5.20;;
19049;SDS011;9657;45.940;12.840;2023-05-28T09:57:54;6.55;;;4.93;;
19049;SDS011;9657;45.940;12.840;2023-05-28T10:00:29;7.72;;;4.88;;
19049;SDS011;9657;45.940;12.840;2023-05-28T10:03:03;5.78;;;4.82;;
19049;SDS011;9657;45.940;12.840;2023-05-28T10:05:36;5.03;;;4.53;;
19049;SDS011;9657;45.940;12.840;2023-05-28T10:08:06;4.72;;;4.22;;
19049;SDS011;9657;45.940;12.840;2023-05-28T10:10:37;6.35;;;5.10;;
19049;SDS011;9657;45.940;12.840;2023-05-28T10:13:07;4.60;;;3.95;;
19049;SDS011;9657;45.940;12.840;2023-05-28T10:15:36;5.00;;;4.47;;
19049;SDS011;9657;45.940;12.840;2023-05-28T10:18:06;7.88;;;5.55;;
19049;SDS011;9657;45.940;12.840;2023-05-28T10:20:34;5.20;;;4.70;;
19049;SDS011;9657;45.940;12.840;2023-05-28T10:23:01;5.47;;;4.68;;
19049;SDS011;9657;45.940;12.840;2023-05-28T10:25:29;5.40;;;4.70;;
19049;SDS011;9657;45.940;12.840;2023-05-28T10:27:58;7.15;;;4.97;;
19049;SDS011;9657;45.940;12.840;2023-05-28T10:30:30;6.82;;;5.28;;
19049;SDS011;9657;45.940;12.840;2023-05-28T10:32:58;6.43;;;5.75;;
19049;SDS011;9657;45.940;12.840;2023-05-28T10:35:27;8.82;;;5.90;;
19049;SDS011;9657;45.940;12.840;2023-05-28T10:38:04;6.60;;;5.85;;
19049;SDS011;9657;45.940;12.840;2023-05-28T10:40:32;7.50;;;6.20;;
19049;SDS011;9657;45.940;12.840;2023-05-28T10:43:00;7.28;;;6.47;;
19049;SDS011;9657;45.940;12.840;2023-05-28T10:45:36;10.30;;;6.70;;
19049;SDS011;9657;45.940;12.840;2023-05-28T10:48:06;8.48;;;6.03;;
19049;SDS011;9657;45.940;12.840;2023-05-28T10:50:35;7.53;;;6.72;;
19049;SDS011;9657;45.940;12.840;2023-05-28T10:53:23;7.82;;;5.80;;
19049;SDS011;9657;45.940;12.840;2023-05-28T10:55:51;6.60;;;5.72;;
19049;SDS011;9657;45.940;12.840;2023-05-28T10:58:22;6.65;;;5.57;;
19049;SDS011;9657;45.940;12.840;2023-05-28T11:00:50;7.68;;;6.65;;
19049;SDS011;9657;45.940;12.840;2023-05-28T11:06:11;6.20;;;5.60;;
19049;SDS011;9657;45.940;12.840;2023-05-28T11:08:40;6.28;;;5.70;;
19049;SDS011;9657;45.940;12.840;2023-05-28T11:11:10;6.25;;;5.63;;
19049;SDS011;9657;45.940;12.840;2023-05-28T11:13:38;8.00;;;6.55;;
19049;SDS011;9657;45.940;12.840;2023-05-28T11:16:06;6.93;;;6.28;;
19049;SDS011;9657;45.940;12.840;2023-05-28T11:18:34;7.20;;;6.07;;
19049;SDS011;9657;45.940;12.840;2023-05-28T11:21:04;8.30;;;6.88;;
19049;SDS011;9657;45.940;12.840;2023-05-28T11:23:34;10.52;;;6.35;;
19049;SDS011;9657;45.940;12.840;2023-05-28T11:26:02;7.78;;;6.45;;
19049;SDS011;9657;45.940;12.840;2023-05-28T11:28:30;7.25;;;5.93;;
19049;SDS011;9657;45.940;12.840;2023-05-28T11:30:58;6.40;;;5.80;;
19049;SDS011;9657;45.940;12.840;2023-05-28T11:33:28;7.15;;;5.72;;
19049;SDS011;9657;45.940;12.840;2023-05-28T11:35:56;6.30;;;5.65;;
19049;SDS011;9657;45.940;12.840;2023-05-28T11:38:24;6.38;;;5.45;;
19049;SDS011;9657;45.940;12.840;2023-05-28T11:40:58;7.95;;;6.25;;
19049;SDS011;9657;45.940;12.840;2023-05-28T11:43:26;8.02;;;6.35;;
19049;SDS011;9657;45.940;12.840;2023-05-28T11:45:56;8.02;;;6.05;;
19049;SDS011;9657;45.940;12.840;2023-05-28T11:48:25;8.05;;;6.20;;
19049;SDS011;9657;45.940;12.840;2023-05-28T11:50:57;6.45;;;5.40;;
19049;SDS011;9657;45.940;12.840;2023-05-28T11:53:37;6.75;;;5.88;;
19049;SDS011;9657;45.940;12.840;2023-05-28T11:56:06;6.25;;;5.65;;
19049;SDS011;9657;45.940;12.840;2023-05-28T11:58:34;8.93;;;5.93;;
19049;SDS011;9657;45.940;12.840;2023-05-28T12:01:06;5.47;;;4.95;;
19049;SDS011;9657;45.940;12.840;2023-05-28T12:03:34;6.78;;;5.43;;
19049;SDS011;9657;45.940;12.840;2023-05-28T12:06:01;8.60;;;6.05;;
19049;SDS011;9657;45.940;12.840;2023-05-28T12:08:28;6.22;;;5.28;;
19049;SDS011;9657;45.940;12.840;2023-05-28T12:10:59;7.57;;;6.10;;
19049;SDS011;9657;45.940;12.840;2023-05-28T12:13:32;7.35;;;5.75;;
19049;SDS011;9657;45.940;12.840;2023-05-28T12:16:06;5.65;;;4.82;;
19049;SDS011;9657;45.940;12.840;2023-05-28T12:18:34;6.43;;;5.60;;
19049;SDS011;9657;45.940;12.840;2023-05-28T12:21:09;5.88;;;5.30;;
19049;SDS011;9657;45.940;12.840;2023-05-28T12:23:37;8.07;;;5.57;;
19049;SDS011;9657;45.940;12.840;2023-05-28T12:26:09;5.72;;;5.13;;
19049;SDS011;9657;45.940;12.840;2023-05-28T12:28:39;5.20;;;4.70;;
19049;SDS011;9657;45.940;12.840;2023-05-28T12:31:06;5.78;;;5.28;;
19049;SDS011;9657;45.940;12.840;2023-05-28T12:33:34;7.22;;;6.00;;
19049;SDS011;9657;45.940;12.840;2023-05-28T12:36:01;6.05;;;5.40;;
19049;SDS011;9657;45.940;12.840;2023-05-28T12:38:29;5.40;;;4.85;;
19049;SDS011;9657;45.940;12.840;2023-05-28T12:40:56;5.88;;;5.28;;
19049;SDS011;9657;45.940;12.840;2023-05-28T12:43:24;5.63;;;5.07;;
19049;SDS011;9657;45.940;12.840;2023-05-28T12:45:52;5.78;;;5.28;;
19049;SDS011;9657;45.940;12.840;2023-05-28T12:48:19;5.45;;;4.95;;
19049;SDS011;9657;45.940;12.840;2023-05-28T12:50:46;6.05;;;5.20;;
19049;SDS011;9657;45.940;12.840;2023-05-28T12:53:13;6.07;;;5.25;;
19049;SDS011;9657;45.940;12.840;2023-05-28T12:55:41;6.32;;;5.68;;
19049;SDS011;9657;45.940;12.840;2023-05-28T12:58:08;7.13;;;6.18;;
19049;SDS011;9657;45.940;12.840;2023-05-28T13:00:35;7.13;;;6.43;;
19049;SDS011;9657;45.940;12.840;2023-05-28T13:03:04;8.40;;;7.25;;
19049;SDS011;9657;45.940;12.840;2023-05-28T13:05:32;8.65;;;7.10;;
19049;SDS011;9657;45.940;12.840;2023-05-28T13:07:59;6.97;;;6.32;;
19049;SDS011;9657;45.940;12.840;2023-05-28T13:10:27;8.32;;;7.25;;
19049;SDS011;9657;45.940;12.840;2023-05-28T13:12:54;9.77;;;7.38;;
19049;SDS011;9657;45.940;12.840;2023-05-28T13:15:21;9.02;;;7.28;;
19049;SDS011;9657;45.940;12.840;2023-05-28T13:17:48;8.45;;;7.68;;
19049;SDS011;9657;45.940;12.840;2023-05-28T13:20:17;9.30;;;7.65;;
19049;SDS011;9657;45.940;12.840;2023-05-28T13:22:44;7.93;;;7.13;;
19049;SDS011;9657;45.940;12.840;2023-05-28T13:25:11;9.98;;;7.18;;
19049;SDS011;9657;45.940;12.840;2023-05-28T13:27:38;7.63;;;6.82;;
19049;SDS011;9657;45.940;12.840;2023-05-28T13:30:06;8.32;;;6.68;;
19049;SDS011;9657;45.940;12.840;2023-05-28T13:32:34;8.40;;;7.20;;
19049;SDS011;9657;45.940;12.840;2023-05-28T13:35:01;9.45;;;6.65;;
19049;SDS011;9657;45.940;12.840;2023-05-28T13:37:29;7.32;;;6.63;;
19049;SDS011;9657;45.940;12.840;2023-05-28T13:39:57;7.03;;;6.32;;
19049;SDS011;9657;45.940;12.840;2023-05-28T13:42:24;7.60;;;6.53;;
19049;SDS011;9657;45.940;12.840;2023-05-28T13:44:52;7.30;;;6.60;;
19049;SDS011;9657;45.940;12.840;2023-05-28T13:47:19;7.32;;;6.70;;
19049;SDS011;9657;45.940;12.840;2023-05-28T13:49:46;7.35;;;6.05;;
19049;SDS011;9657;45.940;12.840;2023-05-28T13:52:13;7.85;;;6.90;;
19049;SDS011;9657;45.940;12.840;2023-05-28T13:54:42;8.20;;;6.28;;
19049;SDS011;9657;45.940;12.840;2023-05-28T13:57:09;6.90;;;6.20;;
19049;SDS011;9657;45.940;12.840;2023-05-28T13:59:36;6.95;;;6.18;;
19049;SDS011;9657;45.940;12.840;2023-05-28T14:02:03;6.13;;;5.55;;
19049;SDS011;9657;45.940;12.840;2023-05-28T14:04:30;6.97;;;6.32;;
19049;SDS011;9657;45.940;12.840;2023-05-28T14:06:57;7.78;;;6.43;;
19049;SDS011;9657;45.940;12.840;2023-05-28T14:09:25;8.35;;;6.28;;
19049;SDS011;9657;45.940;12.840;2023-05-28T14:11:53;8.05;;;6.75;;
19049;SDS011;9657;45.940;12.840;2023-05-28T14:14:21;6.97;;;6.30;;
19049;SDS011;9657;45.940;12.840;2023-05-28T14:16:48;6.45;;;5.85;;
19049;SDS011;9657;45.940;12.840;2023-05-28T14:19:15;8.52;;;6.72;;
19049;SDS011;9657;45.940;12.840;2023-05-28T14:21:42;8.25;;;6.22;;
19049;SDS011;9657;45.940;12.840;2023-05-28T14:24:09;7.88;;;6.38;;
19049;SDS011;9657;45.940;12.840;2023-05-28T14:26:37;8.00;;;5.68;;
19049;SDS011;9657;45.940;12.840;2023-05-28T14:29:05;6.60;;;5.82;;
19049;SDS011;9657;45.940;12.840;2023-05-28T14:31:32;7.00;;;6.07;;
19049;SDS011;9657;45.940;12.840;2023-05-28T14:33:59;7.70;;;6.88;;
19049;SDS011;9657;45.940;12.840;2023-05-28T14:36:26;8.05;;;6.68;;
19049;SDS011;9657;45.940;12.840;2023-05-28T14:38:53;9.13;;;5.80;;
19049;SDS011;9657;45.940;12.840;2023-05-28T14:41:20;11.05;;;6.68;;
19049;SDS011;9657;45.940;12.840;2023-05-28T14:43:47;8.30;;;5.95;;
19049;SDS011;9657;45.940;12.840;2023-05-28T14:46:16;7.88;;;6.07;;
19049;SDS011;9657;45.940;12.840;2023-05-28T14:48:43;9.15;;;7.07;;
19049;SDS011;9657;45.940;12.840;2023-05-28T14:51:10;8.32;;;6.82;;
19049;SDS011;9657;45.940;12.840;2023-05-28T14:53:37;12.20;;;7.03;;
19049;SDS011;9657;45.940;12.840;2023-05-28T14:56:05;7.32;;;6.63;;
19049;SDS011;9657;45.940;12.840;2023-05-28T14:58:32;7.07;;;5.97;;